createdAt,value
2017-07-20T00:01:36.809Z,997.69
2017-07-20T00:04:01.490Z,997.66
2017-07-20T00:06:26.165Z,997.66
2017-07-20T00:08:50.753Z,997.66
2017-07-20T00:11:15.405Z,997.73
2017-07-20T00:13:39.992Z,997.69
2017-07-20T00:16:04.755Z,997.72
2017-07-20T00:18:20.975Z,997.71
2017-07-20T00:20:45.639Z,997.73
2017-07-20T00:23:01.838Z,997.75
2017-07-20T00:25:18.031Z,997.77
2017-07-20T00:27:34.263Z,997.77
2017-07-20T00:29:27.332Z,997.8
2017-07-20T00:31:51.993Z,997.79
2017-07-20T00:34:16.774Z,997.79
2017-07-20T00:36:26.872Z,997.82
2017-07-20T00:38:51.570Z,997.83
2017-07-20T00:40:53.159Z,997.82
2017-07-20T00:43:17.890Z,997.85
2017-07-20T00:45:42.566Z,997.76
2017-07-20T00:47:58.807Z,997.73
2017-07-20T00:50:23.419Z,997.77
2017-07-20T00:52:39.577Z,997.78
2017-07-20T00:54:55.709Z,997.74
2017-07-20T00:57:11.889Z,997.74
2017-07-20T00:59:36.553Z,997.78
2017-07-20T01:02:01.196Z,997.76
2017-07-20T01:04:17.384Z,997.76
2017-07-20T01:06:33.646Z,997.81
2017-07-20T01:08:49.945Z,997.77
2017-07-20T01:10:57.776Z,997.8
2017-07-20T01:13:22.542Z,997.79
2017-07-20T01:15:30.365Z,997.72
2017-07-20T01:17:55.035Z,997.73
2017-07-20T01:20:11.361Z,997.76
2017-07-20T01:22:27.564Z,997.72
2017-07-20T01:24:43.830Z,997.72
2017-07-20T01:27:00.056Z,997.74
2017-07-20T01:29:24.732Z,997.74
2017-07-20T01:31:49.455Z,997.71
2017-07-20T01:34:14.223Z,997.8
2017-07-20T01:36:38.921Z,997.83
2017-07-20T01:39:03.614Z,997.81
2017-07-20T01:41:19.838Z,997.71
2017-07-20T01:43:44.617Z,997.68
2017-07-20T01:46:09.407Z,997.63
2017-07-20T01:48:25.624Z,997.67
2017-07-20T01:50:50.305Z,997.6
2017-07-20T01:53:15.097Z,997.61
2017-07-20T01:55:39.807Z,997.7
2017-07-20T01:57:56.018Z,997.73
2017-07-20T02:00:20.704Z,997.73
2017-07-20T02:02:45.389Z,997.64
2017-07-20T02:05:10.073Z,997.64
2017-07-20T02:07:34.771Z,997.59
2017-07-20T02:09:59.470Z,997.54
2017-07-20T02:12:24.170Z,997.57
2017-07-20T02:14:40.418Z,997.56
2017-07-20T02:18:40.919Z,997.62
2017-07-20T02:20:57.072Z,997.58
2017-07-20T02:23:21.633Z,997.57
2017-07-20T02:25:46.221Z,997.56
2017-07-20T02:28:10.797Z,997.58
2017-07-20T02:30:35.374Z,997.56
2017-07-20T02:32:59.969Z,997.56
2017-07-20T02:35:24.560Z,997.49
2017-07-20T02:37:40.803Z,997.57
2017-07-20T02:39:48.490Z,997.57
2017-07-20T02:42:13.040Z,997.55
2017-07-20T02:44:37.673Z,997.6
2017-07-20T02:47:02.340Z,997.6
2017-07-20T02:49:18.576Z,997.57
2017-07-20T02:51:34.768Z,997.57
2017-07-20T02:53:59.323Z,997.54
2017-07-20T02:56:23.922Z,997.58
2017-07-20T02:58:40.115Z,997.57
2017-07-20T03:01:04.713Z,997.56
2017-07-20T03:03:20.905Z,997.58
2017-07-20T03:05:45.504Z,997.56
2017-07-20T03:08:10.105Z,997.63
2017-07-20T03:10:34.684Z,997.59
2017-07-20T03:12:59.293Z,997.6
2017-07-20T03:15:23.880Z,997.6
2017-07-20T03:17:48.468Z,997.58
2017-07-20T03:20:13.065Z,997.55
2017-07-20T03:22:29.265Z,997.65
2017-07-20T03:24:53.770Z,997.69
2017-07-20T03:27:09.877Z,997.71
2017-07-20T03:29:34.565Z,997.73
2017-07-20T03:31:59.157Z,997.75
2017-07-20T03:34:23.792Z,997.76
2017-07-20T03:36:48.436Z,997.8
2017-07-20T03:38:49.936Z,997.87
2017-07-20T03:41:14.525Z,997.86
2017-07-20T03:43:39.088Z,997.88
2017-07-20T03:46:03.611Z,997.9
2017-07-20T03:48:13.594Z,997.86
2017-07-20T03:50:38.173Z,997.94
2017-07-20T03:53:02.726Z,997.94
2017-07-20T03:55:27.400Z,998.03
2017-07-20T03:57:51.849Z,998.04
2017-07-20T04:00:07.983Z,998.05
2017-07-20T04:02:32.584Z,998.12
2017-07-20T04:04:57.180Z,998.08
2017-07-20T04:07:13.307Z,998.12
2017-07-20T04:09:37.856Z,998.15
2017-07-20T04:12:02.385Z,998.16
2017-07-20T04:14:26.958Z,998.12
2017-07-20T04:16:51.484Z,998.12
2017-07-20T04:19:16.135Z,998.05
2017-07-20T04:21:40.662Z,998.06
2017-07-20T04:23:42.168Z,998.16
2017-07-20T04:26:06.759Z,998.21
2017-07-20T04:28:31.258Z,998.2
2017-07-20T04:30:55.805Z,998.24
2017-07-20T04:33:20.457Z,998.18
2017-07-20T04:35:45.060Z,998.2
2017-07-20T04:38:01.170Z,998.31
2017-07-20T04:40:25.734Z,998.29
2017-07-20T04:42:50.330Z,998.31
2017-07-20T04:45:14.924Z,998.33
2017-07-20T04:47:39.519Z,998.32
2017-07-20T04:50:04.124Z,998.32
2017-07-20T04:52:20.190Z,998.35
2017-07-20T04:54:44.809Z,998.44
2017-07-20T04:57:09.404Z,998.51
2017-07-20T04:59:33.992Z,998.53
2017-07-20T05:01:50.100Z,998.5
2017-07-20T05:04:14.794Z,998.46
2017-07-20T05:06:39.482Z,998.5
2017-07-20T05:08:55.684Z,998.5
2017-07-20T05:11:11.774Z,998.5
2017-07-20T05:13:36.366Z,998.55
2017-07-20T05:16:00.969Z,998.52
2017-07-20T05:18:25.560Z,998.56
2017-07-20T05:20:50.146Z,998.5
2017-07-20T05:23:14.854Z,998.54
2017-07-20T05:25:39.533Z,998.59
2017-07-20T05:27:56.700Z,998.61
2017-07-20T05:30:21.358Z,998.7
2017-07-20T05:32:46.060Z,998.7
2017-07-20T05:35:02.176Z,998.72
2017-07-20T05:37:26.798Z,998.76
2017-07-20T05:39:51.558Z,998.83
2017-07-20T05:42:16.270Z,998.86
2017-07-20T05:44:32.589Z,998.9
2017-07-20T05:46:57.386Z,999.07
2017-07-20T05:49:22.319Z,999.13
2017-07-20T05:51:32.591Z,999.08
2017-07-20T05:53:57.903Z,998.94
2017-07-20T05:56:23.212Z,998.93
2017-07-20T05:58:48.536Z,999.06
2017-07-20T06:01:13.997Z,998.99
2017-07-20T06:03:22.403Z,999.05
2017-07-20T06:05:39.438Z,999.06
2017-07-20T06:08:04.954Z,999.09
2017-07-20T06:10:21.952Z,998.99
2017-07-20T06:12:47.337Z,999.05
2017-07-20T06:15:12.727Z,999.03
2017-07-20T06:17:29.581Z,999.03
2017-07-20T06:19:55.003Z,998.89
2017-07-20T06:22:05.841Z,998.87
2017-07-20T06:24:07.515Z,998.91
2017-07-20T06:26:32.850Z,998.96
2017-07-20T06:28:58.120Z,998.94
2017-07-20T06:31:23.329Z,998.97
2017-07-20T06:33:48.650Z,999.13
2017-07-20T06:36:13.968Z,999.04
2017-07-20T06:38:39.387Z,999.02
2017-07-20T06:41:04.769Z,999.24
2017-07-20T06:43:21.727Z,999.23
2017-07-20T06:45:47.411Z,999.12
2017-07-20T06:48:13.226Z,999.3
2017-07-20T06:50:39.189Z,999.21
2017-07-20T06:53:05.264Z,999.32
2017-07-20T06:55:31.608Z,999.36
2017-07-20T06:57:49.348Z,999.42
2017-07-20T07:00:07.201Z,999.37
2017-07-20T07:02:33.855Z,999.38
2017-07-20T07:04:36.407Z,999.38
2017-07-20T07:07:03.253Z,999.25
2017-07-20T07:09:21.475Z,999.21
2017-07-20T07:11:31.127Z,999.16
2017-07-20T07:13:57.695Z,999.15
2017-07-20T07:16:24.115Z,999.01
2017-07-20T07:18:50.344Z,999.02
2017-07-20T07:21:16.349Z,999.09
2017-07-20T07:23:42.197Z,999.15
2017-07-20T07:26:07.878Z,999.14
2017-07-20T07:28:24.997Z,999.16
2017-07-20T07:30:50.518Z,999.16
2017-07-20T07:32:52.733Z,999.2
2017-07-20T07:35:18.041Z,999.25
2017-07-20T07:37:43.349Z,999.23
2017-07-20T07:40:08.639Z,999.28
2017-07-20T07:42:33.904Z,999.3
2017-07-20T07:44:59.174Z,999.37
2017-07-20T07:47:24.494Z,999.26
2017-07-20T07:49:41.359Z,999.21
2017-07-20T07:52:07.909Z,999.2
2017-07-20T07:54:33.400Z,999.21
2017-07-20T07:58:35.485Z,999.28
2017-07-20T08:01:00.845Z,999.23
2017-07-20T08:03:17.615Z,999.24
2017-07-20T08:05:34.341Z,999.23
2017-07-20T08:07:51.051Z,999.21
2017-07-20T08:10:17.767Z,999.25
2017-07-20T08:12:42.909Z,999.22
2017-07-20T08:15:08.019Z,999.25
2017-07-20T08:17:24.625Z,999.32
2017-07-20T08:19:51.607Z,999.38
2017-07-20T08:22:02.328Z,999.42
2017-07-20T08:24:27.299Z,999.5
2017-07-20T08:26:52.247Z,999.5
2017-07-20T08:29:17.212Z,999.51
2017-07-20T08:31:42.106Z,999.48
2017-07-20T08:34:07.018Z,999.51
2017-07-20T08:36:31.928Z,999.57
2017-07-20T08:38:56.811Z,999.61
2017-07-20T08:41:13.113Z,999.67
2017-07-20T08:43:37.839Z,999.68
2017-07-20T08:46:02.596Z,999.83
2017-07-20T08:48:27.297Z,999.85
2017-07-20T08:50:51.995Z,999.86
2017-07-20T08:53:16.670Z,999.92
2017-07-20T08:55:41.292Z,999.98
2017-07-20T08:58:05.881Z,999.92
2017-07-20T09:00:30.492Z,999.96
2017-07-20T09:04:30.956Z,1000.03
2017-07-20T09:06:41.110Z,1000.06
2017-07-20T09:09:05.733Z,1000.08
2017-07-20T09:11:30.338Z,1000.05
2017-07-20T09:13:54.937Z,1000.11
2017-07-20T09:16:19.532Z,1000.16
2017-07-20T09:20:20.435Z,1000.25
2017-07-20T09:22:45.046Z,1000.28
2017-07-20T09:25:09.573Z,1000.35
2017-07-20T09:27:34.110Z,1000.38
2017-07-20T09:29:50.170Z,1000.43
2017-07-20T09:32:14.659Z,1000.42
2017-07-20T09:34:39.141Z,1000.42
2017-07-20T09:37:03.644Z,1000.38
2017-07-20T09:39:28.115Z,1000.38
2017-07-20T09:41:44.119Z,1000.38
2017-07-20T09:45:44.439Z,1000.3
2017-07-20T09:48:08.934Z,1000.32
2017-07-20T09:50:24.903Z,1000.32
2017-07-20T09:52:49.344Z,1000.35
2017-07-20T09:55:13.799Z,1000.4
2017-07-20T09:57:38.261Z,1000.44
2017-07-20T10:00:02.766Z,1000.46
2017-07-20T10:02:27.241Z,1000.44
2017-07-20T10:04:51.765Z,1000.51
2017-07-20T10:07:16.317Z,1000.55
2017-07-20T10:09:23.954Z,1000.57
2017-07-20T10:11:49.593Z,1000.58
2017-07-20T10:14:14.166Z,1000.53
2017-07-20T10:16:38.779Z,1000.48
2017-07-20T10:19:03.379Z,1000.51
2017-07-20T10:21:05.431Z,1000.44
2017-07-20T10:23:21.596Z,1000.44
2017-07-20T10:25:46.179Z,1000.44
2017-07-20T10:27:56.791Z,1000.4
2017-07-20T10:30:12.948Z,1000.42
2017-07-20T10:32:14.935Z,1000.44
2017-07-20T10:34:39.565Z,1000.43
2017-07-20T10:37:04.212Z,1000.47
2017-07-20T10:39:28.800Z,1000.45
2017-07-20T10:41:53.470Z,1000.52
2017-07-20T10:44:09.701Z,1000.55
2017-07-20T10:48:10.946Z,1000.57
2017-07-20T10:50:13.766Z,1000.59
2017-07-20T10:52:38.528Z,1000.59
2017-07-20T10:54:49.175Z,1000.64
2017-07-20T10:57:13.960Z,1000.68
2017-07-20T10:59:38.726Z,1000.72
2017-07-20T11:02:03.435Z,1000.74
2017-07-20T11:04:28.241Z,1000.77
2017-07-20T11:06:52.946Z,1000.78
2017-07-20T11:09:17.639Z,1000.89
2017-07-20T11:11:33.858Z,1000.87
2017-07-20T11:13:58.519Z,1000.91
2017-07-20T11:16:23.221Z,1000.96
2017-07-20T11:20:24.230Z,1000.95
2017-07-20T11:22:48.915Z,1000.92
2017-07-20T11:24:50.421Z,1000.92
2017-07-20T11:26:52.472Z,1000.96
2017-07-20T11:29:17.220Z,1000.89
2017-07-20T11:31:41.968Z,1000.92
2017-07-20T11:34:06.721Z,1000.84
2017-07-20T11:36:31.534Z,1000.84
2017-07-20T11:38:56.973Z,1000.76
2017-07-20T11:41:21.145Z,1000.68
2017-07-20T11:43:45.997Z,1000.67
2017-07-20T11:46:10.836Z,1000.58
2017-07-20T11:48:27.184Z,1000.61
2017-07-20T11:50:43.569Z,1000.59
2017-07-20T11:53:08.412Z,1000.56
2017-07-20T11:55:33.213Z,1000.54
2017-07-20T11:57:58.021Z,1000.55
2017-07-20T12:00:00.089Z,1000.63
2017-07-20T12:02:24.994Z,1000.59
2017-07-20T12:04:41.409Z,1000.48
2017-07-20T12:07:06.318Z,1000.5
2017-07-20T12:09:31.205Z,1000.5
2017-07-20T12:11:56.165Z,1000.54
2017-07-20T12:14:21.063Z,1000.57
2017-07-20T12:16:46.016Z,1000.53
2017-07-20T12:19:02.397Z,1000.54
2017-07-20T12:21:27.268Z,1000.57
2017-07-20T12:23:52.118Z,1000.52
2017-07-20T12:26:08.543Z,1000.52
2017-07-20T12:28:24.978Z,1000.56
2017-07-20T12:30:49.876Z,1000.51
2017-07-20T12:33:14.727Z,1000.42
2017-07-20T12:35:39.548Z,1000.41
2017-07-20T12:38:04.427Z,1000.38
2017-07-20T12:40:20.801Z,1000.39
2017-07-20T12:42:45.666Z,1000.27
2017-07-20T12:45:02.040Z,1000.27
2017-07-20T12:47:26.904Z,1000.27
2017-07-20T12:49:51.786Z,1000.26
2017-07-20T12:52:16.682Z,1000.26
2017-07-20T12:54:41.583Z,1000.24
2017-07-20T12:56:52.245Z,1000.22
2017-07-20T12:59:17.135Z,1000.21
2017-07-20T13:01:33.522Z,1000.2
2017-07-20T13:03:58.332Z,1000.1
2017-07-20T13:06:23.197Z,1000.11
2017-07-20T13:08:39.595Z,1000.05
2017-07-20T13:11:04.463Z,1000.01
2017-07-20T13:13:29.308Z,999.99
2017-07-20T13:15:54.193Z,999.96
2017-07-20T13:17:56.283Z,999.98
2017-07-20T13:20:06.443Z,999.99
2017-07-20T13:22:22.863Z,999.96
2017-07-20T13:24:47.704Z,999.91
2017-07-20T13:27:12.581Z,999.99
2017-07-20T13:29:37.414Z,1000.01
2017-07-20T13:32:02.246Z,1000.03
2017-07-20T13:33:55.347Z,999.97
2017-07-20T13:36:11.744Z,999.92
2017-07-20T13:38:36.535Z,999.91
2017-07-20T13:41:01.389Z,999.88
2017-07-20T13:43:26.178Z,999.83
2017-07-20T13:45:51.050Z,999.78
2017-07-20T13:48:15.897Z,999.72
2017-07-20T13:50:32.285Z,999.74
2017-07-20T13:52:57.095Z,999.8
2017-07-20T13:55:21.958Z,999.78
2017-07-20T13:57:46.826Z,999.75
2017-07-20T14:00:11.742Z,999.71
2017-07-20T14:02:36.772Z,999.78
2017-07-20T14:05:01.669Z,999.74
2017-07-20T14:07:18.107Z,999.74
2017-07-20T14:09:43.095Z,999.74
2017-07-20T14:12:08.107Z,999.78
2017-07-20T14:14:24.607Z,999.77
2017-07-20T14:16:49.746Z,999.75
2017-07-20T14:19:14.664Z,999.71
2017-07-20T14:21:31.220Z,999.62
2017-07-20T14:23:47.713Z,999.54
2017-07-20T14:26:12.649Z,999.42
2017-07-20T14:28:14.365Z,999.39
2017-07-20T14:30:39.353Z,999.51
2017-07-20T14:33:04.281Z,999.69
2017-07-20T14:35:29.144Z,1000
2017-07-20T14:37:53.949Z,1000.13
2017-07-20T14:40:18.709Z,1000.02
2017-07-20T14:42:43.461Z,1000.36
2017-07-20T14:44:59.692Z,1000.57
2017-07-20T14:47:24.336Z,1000.53
2017-07-20T14:49:49.016Z,1000.32
2017-07-20T14:52:13.584Z,1000.32
2017-07-20T14:54:38.081Z,1000.35
2017-07-20T14:57:02.573Z,1000.25
2017-07-20T14:59:27.149Z,1000.16
2017-07-20T15:01:51.651Z,1000.12
2017-07-20T15:03:59.277Z,1000.14
2017-07-20T15:06:23.859Z,1000.09
2017-07-20T15:08:48.351Z,1000
2017-07-20T15:11:12.820Z,999.95
2017-07-20T15:13:37.246Z,999.93
2017-07-20T15:16:01.623Z,1000.01
2017-07-20T15:18:26.091Z,1000.04
2017-07-20T15:20:50.676Z,1000.02
2017-07-20T15:23:06.661Z,1000.1
2017-07-20T15:25:31.144Z,1000.15
2017-07-20T15:27:55.768Z,1000.15
2017-07-20T15:30:20.397Z,1000.15
2017-07-20T15:32:44.970Z,1000.14
2017-07-20T15:35:09.565Z,1000.25
2017-07-20T15:37:39.124Z,1000.21
2017-07-20T15:40:14.077Z,1000.15
2017-07-20T15:42:39.714Z,1000.14
2017-07-20T15:45:04.429Z,1000.19
2017-07-20T15:47:29.042Z,1000.11
2017-07-20T15:49:45.192Z,1000.06
2017-07-20T15:52:09.842Z,999.97
2017-07-20T15:54:34.626Z,999.95
2017-07-20T15:56:59.277Z,999.92
2017-07-20T15:59:23.955Z,999.92
2017-07-20T16:01:48.611Z,999.85
2017-07-20T16:04:13.223Z,999.91
2017-07-20T16:06:29.365Z,999.79
2017-07-20T16:08:45.454Z,999.7
2017-07-20T16:11:10.076Z,999.65
2017-07-20T16:13:26.942Z,999.62
2017-07-20T16:15:51.576Z,999.53
2017-07-20T16:18:16.396Z,999.5
2017-07-20T16:20:32.613Z,999.38
2017-07-20T16:22:48.791Z,999.29
2017-07-20T16:25:13.386Z,999.29
2017-07-20T16:27:38.068Z,999.29
2017-07-20T16:30:02.680Z,999.24
2017-07-20T16:32:27.227Z,999.24
2017-07-20T16:34:51.787Z,999.26
2017-07-20T16:37:16.365Z,999.3
2017-07-20T16:39:41.046Z,999.32
2017-07-20T16:42:05.732Z,999.32
2017-07-20T16:44:30.343Z,999.32
2017-07-20T16:46:54.935Z,999.33
2017-07-20T16:49:19.531Z,999.34
2017-07-20T16:51:44.228Z,999.42
2017-07-20T16:54:00.349Z,999.36
2017-07-20T16:56:25.017Z,999.41
2017-07-20T16:58:49.704Z,999.41
2017-07-20T17:01:14.294Z,999.44
2017-07-20T17:03:38.882Z,999.41
2017-07-20T17:06:03.588Z,999.44
2017-07-20T17:08:28.272Z,999.46
2017-07-20T17:10:52.872Z,999.4
2017-07-20T17:13:08.954Z,999.44
2017-07-20T17:15:33.564Z,999.49
2017-07-20T17:17:58.139Z,999.42
2017-07-20T17:20:22.753Z,999.47
2017-07-20T17:22:47.351Z,999.4
2017-07-20T17:25:11.917Z,999.38
2017-07-20T17:27:36.565Z,999.35
2017-07-20T17:30:01.257Z,999.37
2017-07-20T17:32:25.866Z,999.38
2017-07-20T17:34:50.471Z,999.41
2017-07-20T17:37:15.084Z,999.41
2017-07-20T17:39:31.252Z,999.48
2017-07-20T17:41:55.935Z,999.54
2017-07-20T17:44:20.629Z,999.56
2017-07-20T17:46:45.183Z,999.58
2017-07-20T17:49:01.275Z,999.63
2017-07-20T17:51:25.882Z,999.67
2017-07-20T17:53:50.413Z,999.7
2017-07-20T17:55:52.037Z,999.66
2017-07-20T17:58:16.713Z,999.69
2017-07-20T18:00:41.156Z,999.69
2017-07-20T18:03:05.679Z,999.8
2017-07-20T18:05:21.736Z,999.79
2017-07-20T18:07:46.295Z,999.72
2017-07-20T18:10:10.842Z,999.72
2017-07-20T18:12:26.968Z,999.68
2017-07-20T18:14:51.570Z,999.77
2017-07-20T18:17:16.086Z,999.82
2017-07-20T18:19:26.161Z,999.86
2017-07-20T18:21:50.713Z,999.84
2017-07-20T18:24:15.246Z,999.89
2017-07-20T18:26:39.805Z,999.93
2017-07-20T18:29:04.300Z,999.98
2017-07-20T18:31:05.821Z,999.97
2017-07-20T18:33:30.331Z,1000
2017-07-20T18:35:46.370Z,999.99
2017-07-20T18:38:10.923Z,999.99
2017-07-20T18:40:26.992Z,1000.05
2017-07-20T18:42:34.609Z,1000.06
2017-07-20T18:44:59.150Z,1000.02
2017-07-20T18:47:15.225Z,1000.08
2017-07-20T18:49:39.899Z,1000.02
2017-07-20T18:52:04.491Z,1000.08
2017-07-20T18:54:29.085Z,1000.02
2017-07-20T18:56:53.567Z,1000.05
2017-07-20T18:59:18.067Z,1000.09
2017-07-20T19:01:34.108Z,1000.13
2017-07-20T19:03:58.627Z,1000.17
2017-07-20T19:06:23.141Z,1000.15
2017-07-20T19:08:33.690Z,1000.17
2017-07-20T19:10:58.236Z,1000.2
2017-07-20T19:13:22.743Z,1000.24
2017-07-20T19:15:47.278Z,1000.26
2017-07-20T19:18:11.774Z,1000.29
2017-07-20T19:20:27.805Z,1000.31
2017-07-20T19:22:52.299Z,1000.35
2017-07-20T19:25:16.808Z,1000.4
2017-07-20T19:27:41.251Z,1000.45
2017-07-20T19:30:05.737Z,1000.47
2017-07-20T19:32:30.224Z,1000.45
2017-07-20T19:34:54.722Z,1000.55
2017-07-20T19:37:10.784Z,1000.54
2017-07-20T19:39:35.266Z,1000.56
2017-07-20T19:41:51.408Z,1000.63
2017-07-20T19:44:07.446Z,1000.6
2017-07-20T19:46:23.407Z,1000.62
2017-07-20T19:48:47.819Z,1000.64
2017-07-20T19:51:03.820Z,1000.66
2017-07-20T19:53:28.288Z,1000.74
2017-07-20T19:55:52.716Z,1000.72
2017-07-20T19:58:08.747Z,1000.72
2017-07-20T20:00:24.748Z,1000.75
2017-07-20T20:02:49.234Z,1000.81
2017-07-20T20:05:13.748Z,1000.78
2017-07-20T20:07:38.209Z,1000.82
2017-07-20T20:10:02.634Z,1000.81
2017-07-20T20:12:27.081Z,1000.79
2017-07-20T20:14:51.556Z,1000.86
2017-07-20T20:17:15.910Z,1000.89
2017-07-20T20:19:40.308Z,1000.89
2017-07-20T20:21:56.331Z,1000.91
2017-07-20T20:24:20.854Z,1000.88
2017-07-20T20:26:45.242Z,1000.89
2017-07-20T20:30:46.031Z,1000.87
2017-07-20T20:33:10.659Z,1000.89
2017-07-20T20:35:35.041Z,1000.89
2017-07-20T20:37:59.358Z,1000.91
2017-07-20T20:40:23.831Z,1000.99
2017-07-20T20:42:48.206Z,1001.09
2017-07-20T20:45:12.592Z,1001.1
2017-07-20T20:47:36.997Z,1001.11
2017-07-20T20:50:01.494Z,1001.07
2017-07-20T20:52:25.952Z,1001.15
2017-07-20T20:54:50.377Z,1001.16
2017-07-20T20:56:51.869Z,1001.21
2017-07-20T20:59:16.293Z,1001.26
2017-07-20T21:01:40.739Z,1001.33
2017-07-20T21:04:05.164Z,1001.32
2017-07-20T21:06:29.655Z,1001.32
2017-07-20T21:08:31.101Z,1001.37
2017-07-20T21:10:55.548Z,1001.29
2017-07-20T21:13:11.665Z,1001.25
2017-07-20T21:15:36.379Z,1001.26
2017-07-20T21:18:00.732Z,1001.24
2017-07-20T21:20:25.207Z,1001.26
2017-07-20T21:22:49.716Z,1001.24
2017-07-20T21:25:14.087Z,1001.23
2017-07-20T21:27:38.588Z,1001.25
2017-07-20T21:30:02.943Z,1001.25
2017-07-20T21:32:27.364Z,1001.23
2017-07-20T21:34:51.781Z,1001.19
2017-07-20T21:37:07.669Z,1001.2
2017-07-20T21:39:32.125Z,1001.2
2017-07-20T21:41:56.554Z,1001.15
2017-07-20T21:44:20.970Z,1001.17
2017-07-20T21:46:45.390Z,1001.17
2017-07-20T21:49:09.814Z,1001.16
2017-07-20T21:51:34.194Z,1001.22
2017-07-20T21:53:24.205Z,1001.23
2017-07-20T21:55:48.597Z,1001.2
2017-07-20T21:58:04.508Z,1001.16
2017-07-20T22:00:28.841Z,1001.18
2017-07-20T22:02:53.212Z,1001.19
2017-07-20T22:06:45.007Z,1001.17
2017-07-20T22:09:09.536Z,1001.21
2017-07-20T22:11:25.459Z,1001.23
2017-07-20T22:13:49.794Z,1001.22
2017-07-20T22:16:14.200Z,1001.31
2017-07-20T22:18:38.593Z,1001.26
2017-07-20T22:20:45.996Z,1001.26
2017-07-20T22:23:10.329Z,1001.3
2017-07-20T22:25:34.742Z,1001.28
2017-07-20T22:27:50.580Z,1001.25
2017-07-20T22:30:15.035Z,1001.19
2017-07-20T22:32:39.348Z,1001.2
2017-07-20T22:34:40.795Z,1001.24
2017-07-20T22:37:05.116Z,1001.25
2017-07-20T22:39:29.456Z,1001.25
2017-07-20T22:41:53.786Z,1001.26
2017-07-20T22:44:09.654Z,1001.25
2017-07-20T22:46:25.515Z,1001.3
2017-07-20T22:48:49.801Z,1001.29
2017-07-20T22:51:05.734Z,1001.34
2017-07-20T22:53:13.277Z,1001.34
2017-07-20T22:55:37.672Z,1001.34
2017-07-20T22:57:53.559Z,1001.34
2017-07-20T23:00:09.506Z,1001.36
2017-07-20T23:02:33.787Z,1001.37
2017-07-20T23:04:58.135Z,1001.36
2017-07-20T23:06:59.593Z,1001.37
2017-07-20T23:09:23.973Z,1001.38
2017-07-20T23:11:48.320Z,1001.35
2017-07-20T23:14:12.745Z,1001.33
2017-07-20T23:16:37.156Z,1001.38
2017-07-20T23:19:01.521Z,1001.45
2017-07-20T23:21:08.965Z,1001.48
2017-07-20T23:23:33.277Z,1001.49
2017-07-20T23:25:57.691Z,1001.57
2017-07-20T23:28:22.089Z,1001.51
2017-07-20T23:30:46.470Z,1001.54
2017-07-20T23:33:10.832Z,1001.49
2017-07-20T23:35:35.247Z,1001.5
2017-07-20T23:37:59.639Z,1001.56
2017-07-20T23:40:15.537Z,1001.5
2017-07-20T23:42:39.921Z,1001.49
2017-07-20T23:45:04.308Z,1001.48
2017-07-20T23:47:20.183Z,1001.51
2017-07-20T23:49:36.016Z,1001.54
2017-07-20T23:52:00.352Z,1001.58
2017-07-20T23:54:24.680Z,1001.56
2017-07-20T23:56:49.023Z,1001.57
2017-07-20T23:59:13.367Z,1001.63
